createdAt,value
2022-12-24T00:02:11.253Z,92.44
2022-12-24T00:05:13.326Z,92.58
2022-12-24T00:08:15.581Z,92.03
2022-12-24T00:11:18.096Z,93.11
2022-12-24T00:14:20.252Z,92.66
2022-12-24T00:17:22.304Z,91.87
2022-12-24T00:20:25.324Z,93.10
2022-12-24T00:23:27.508Z,92.52
2022-12-24T00:26:29.617Z,91.92
2022-12-24T00:29:32.814Z,92.13
2022-12-24T00:32:34.969Z,92.86
2022-12-24T00:35:39.437Z,92.29
2022-12-24T00:38:41.574Z,93.31
2022-12-24T00:41:43.878Z,92.67
2022-12-24T00:44:45.995Z,92.23
2022-12-24T00:47:48.091Z,91.28
2022-12-24T00:50:51.391Z,93.12
2022-12-24T00:53:54.252Z,92.20
2022-12-24T00:56:56.437Z,91.71
2022-12-24T00:59:58.525Z,92.61
2022-12-24T01:03:00.725Z,91.27
2022-12-24T01:06:04.033Z,91.97
2022-12-24T01:09:06.083Z,91.43
2022-12-24T01:12:08.140Z,92.27
2022-12-24T01:15:12.133Z,91.71
2022-12-24T01:18:14.269Z,92.81
2022-12-24T01:21:16.276Z,91.98
2022-12-24T01:24:18.413Z,91.13
2022-12-24T01:27:21.087Z,91.05
2022-12-24T01:30:23.387Z,91.08
2022-12-24T01:33:29.582Z,92.04
2022-12-24T01:36:31.753Z,91.16
2022-12-24T01:39:33.909Z,91.86
2022-12-24T01:42:54.792Z,91.29
2022-12-24T01:46:07.819Z,91.72
2022-12-24T01:49:14.027Z,90.82
2022-12-24T01:52:26.976Z,91.28
2022-12-24T01:55:29.113Z,90.18
2022-12-24T01:58:34.790Z,90.17
2022-12-24T02:01:37.499Z,90.51
2022-12-24T02:05:05.110Z,90.58
2022-12-24T02:08:08.323Z,90.39
2022-12-24T02:11:15.735Z,90.26
2022-12-24T02:14:18.439Z,89.48
2022-12-24T02:17:31.816Z,89.65
2022-12-24T02:20:51.730Z,89.71
2022-12-24T02:23:59.543Z,89.86
2022-12-24T02:27:25.196Z,89.98
2022-12-24T02:30:42.273Z,91.17
2022-12-24T02:34:19.328Z,89.92
2022-12-24T02:37:35.546Z,89.87
2022-12-24T02:40:45.383Z,89.69
2022-12-24T02:43:49.690Z,90.10
2022-12-24T02:46:53.297Z,90.07
2022-12-24T02:49:55.461Z,89.52
2022-12-24T02:52:57.549Z,89.83
2022-12-24T02:56:02.128Z,90.49
2022-12-24T02:59:19.310Z,90.11
2022-12-24T03:02:58.721Z,89.92
2022-12-24T03:06:25.101Z,89.49
2022-12-24T03:09:50.784Z,90.69
2022-12-24T03:12:57.836Z,90.50
2022-12-24T03:16:04.071Z,89.02
2022-12-24T03:19:06.271Z,90.03
2022-12-24T03:22:11.781Z,90.96
2022-12-24T03:25:13.745Z,89.06
2022-12-24T03:28:18.630Z,89.24
2022-12-24T03:31:21.412Z,89.49
2022-12-24T03:34:23.442Z,90.28
2022-12-24T03:37:25.803Z,89.04
2022-12-24T03:40:27.804Z,88.82
2022-12-24T03:43:30.151Z,89.85
2022-12-24T03:46:32.273Z,89.04
2022-12-24T03:49:34.333Z,91.21
2022-12-24T03:52:36.419Z,91.29
2022-12-24T03:55:39.754Z,91.30
2022-12-24T03:58:41.888Z,90.97
2022-12-24T04:01:44.118Z,91.21
2022-12-24T04:04:46.216Z,90.78
2022-12-24T04:07:48.518Z,90.92
2022-12-24T04:10:50.556Z,90.63
2022-12-24T04:13:52.651Z,90.99
2022-12-24T04:16:54.827Z,90.29
2022-12-24T04:19:56.871Z,90.12
2022-12-24T04:22:59.048Z,90.27
2022-12-24T04:26:02.506Z,90.47
2022-12-24T04:29:04.582Z,90.98
2022-12-24T04:32:06.694Z,91.60
2022-12-24T04:35:09.373Z,90.25
2022-12-24T04:38:11.856Z,90.55
2022-12-24T04:41:23.978Z,90.95
2022-12-24T04:44:26.656Z,90.40
2022-12-24T04:47:28.729Z,89.45
2022-12-24T04:50:30.770Z,90.21
2022-12-24T04:53:33.940Z,90.17
2022-12-24T04:56:36.036Z,90.55
2022-12-24T04:59:38.071Z,90.27
2022-12-24T05:02:40.277Z,89.11
2022-12-24T05:05:42.486Z,90.68
2022-12-24T05:08:44.715Z,91.63
2022-12-24T05:11:46.707Z,91.01
2022-12-24T05:14:48.741Z,91.16
2022-12-24T05:17:51.131Z,89.65
2022-12-24T05:20:53.356Z,91.82
2022-12-24T05:24:14.204Z,92.04
2022-12-24T05:27:16.278Z,93.13
2022-12-24T05:30:18.496Z,93.46
2022-12-24T05:33:20.744Z,94.85
2022-12-24T05:36:23.872Z,94.72
2022-12-24T05:39:26.064Z,95.02
2022-12-24T05:42:28.157Z,94.45
2022-12-24T05:45:30.207Z,94.22
2022-12-24T05:48:32.509Z,93.80
2022-12-24T05:51:34.724Z,93.86
2022-12-24T05:54:36.757Z,92.74
2022-12-24T05:57:41.427Z,92.93
2022-12-24T06:00:43.915Z,92.74
2022-12-24T06:03:45.991Z,92.46
2022-12-24T06:06:48.051Z,93.32
2022-12-24T06:09:49.984Z,96.12
2022-12-24T06:12:52.250Z,94.77
2022-12-24T06:16:11.828Z,91.26
2022-12-24T06:19:14.664Z,89.43
2022-12-24T06:22:16.786Z,90.79
2022-12-24T06:25:19.405Z,92.22
2022-12-24T06:28:21.512Z,91.64
2022-12-24T06:31:24.335Z,90.11
2022-12-24T06:34:26.394Z,91.37
2022-12-24T06:37:28.363Z,91.60
2022-12-24T06:40:30.880Z,87.58
2022-12-24T06:43:34.919Z,88.82
2022-12-24T06:46:39.353Z,97.09
2022-12-24T06:49:42.670Z,79.69
2022-12-24T06:52:44.817Z,81.36
2022-12-24T06:55:46.883Z,83.37
2022-12-24T06:58:49.292Z,83.39
2022-12-24T07:01:51.330Z,82.15
2022-12-24T07:04:53.533Z,80.17
2022-12-24T07:07:59.042Z,80.29
2022-12-24T07:11:01.105Z,75.87
2022-12-24T07:14:03.167Z,79.36
2022-12-24T07:17:10.889Z,81.35
2022-12-24T07:20:17.694Z,83.56
2022-12-24T07:23:19.703Z,83.62
2022-12-24T07:26:21.836Z,84.40
2022-12-24T07:29:23.813Z,84.99
2022-12-24T07:32:25.963Z,78.32
2022-12-24T07:35:28.108Z,80.10
2022-12-24T07:38:30.914Z,83.06
2022-12-24T07:41:38.002Z,79.95
2022-12-24T07:44:43.542Z,79.15
2022-12-24T07:47:45.527Z,82.37
2022-12-24T07:50:50.065Z,82.36
2022-12-24T07:53:52.104Z,84.43
2022-12-24T07:56:54.961Z,88.49
2022-12-24T07:59:57.014Z,87.56
2022-12-24T08:03:00.545Z,85.78
2022-12-24T08:06:02.775Z,81.74
2022-12-24T08:09:04.874Z,83.72
2022-12-24T08:12:07.107Z,79.60
2022-12-24T08:15:09.579Z,77.80
2022-12-24T08:18:12.421Z,81.39
2022-12-24T08:21:14.598Z,82.53
2022-12-24T08:24:16.609Z,83.63
2022-12-24T08:27:18.769Z,83.50
2022-12-24T08:30:21.657Z,84.75
2022-12-24T08:33:23.779Z,84.87
2022-12-24T08:36:25.966Z,82.53
2022-12-24T08:39:27.977Z,82.08
2022-12-24T08:42:30.386Z,83.49
2022-12-24T08:45:39.744Z,82.41
2022-12-24T08:48:46.734Z,81.39
2022-12-24T08:51:49.395Z,83.06
2022-12-24T08:54:53.229Z,82.34
2022-12-24T08:57:55.240Z,81.49
2022-12-24T09:00:57.349Z,78.72
2022-12-24T09:04:03.281Z,76.77
2022-12-24T09:07:09.723Z,77.96
2022-12-24T09:10:17.609Z,80.33
2022-12-24T09:13:19.788Z,80.85
2022-12-24T09:16:22.148Z,77.47
2022-12-24T09:19:24.842Z,80.12
2022-12-24T09:22:26.920Z,86.48
2022-12-24T09:25:29.044Z,89.69
2022-12-24T09:28:31.191Z,92.23
2022-12-24T09:31:33.758Z,94.89
2022-12-24T09:34:35.867Z,90.03
2022-12-24T09:37:37.996Z,92.43
2022-12-24T09:40:40.551Z,94.04
2022-12-24T09:43:49.515Z,93.02
2022-12-24T09:46:53.609Z,94.15
2022-12-24T09:50:00.270Z,93.15
2022-12-24T09:53:06.837Z,91.91
2022-12-24T09:56:19.357Z,90.61
2022-12-24T09:59:26.772Z,83.77
2022-12-24T10:02:29.149Z,79.79
2022-12-24T10:05:41.563Z,78.27
2022-12-24T10:09:05.318Z,77.97
2022-12-24T10:12:07.351Z,77.58
2022-12-24T10:15:17.968Z,77.39
2022-12-24T10:18:51.036Z,76.62
2022-12-24T10:22:05.019Z,77.54
2022-12-24T10:25:33.915Z,78.30
2022-12-24T10:28:43.415Z,77.72
2022-12-24T10:31:59.463Z,78.72
2022-12-24T10:35:09.351Z,79.54
2022-12-24T10:38:11.644Z,79.03
2022-12-24T10:41:15.291Z,78.51
2022-12-24T10:44:21.827Z,77.85
2022-12-24T10:47:24.664Z,77.14
2022-12-24T10:50:37.614Z,76.56
2022-12-24T10:53:47.447Z,76.66
2022-12-24T10:56:55.595Z,76.55
2022-12-24T10:59:58.165Z,77.90
2022-12-24T11:03:12.691Z,76.41
2022-12-24T11:06:22.777Z,76.47
2022-12-24T11:09:31.606Z,76.52
2022-12-24T11:13:00.201Z,75.81
2022-12-24T11:16:32.260Z,76.58
2022-12-24T11:19:39.626Z,76.26
2022-12-24T11:22:42.400Z,76.93
2022-12-24T11:25:51.761Z,76.09
2022-12-24T11:29:08.686Z,76.56
2022-12-24T11:32:18.737Z,77.48
2022-12-24T11:35:23.700Z,77.36
2022-12-24T11:38:28.176Z,76.53
2022-12-24T11:41:37.782Z,77.96
2022-12-24T11:44:48.952Z,77.34
2022-12-24T11:47:52.297Z,78.10
2022-12-24T11:51:00.174Z,81.41
2022-12-24T11:54:23.875Z,78.49
2022-12-24T11:57:33.206Z,78.96
2022-12-24T12:00:35.541Z,79.89
2022-12-24T12:03:48.892Z,79.91
2022-12-24T12:06:59.043Z,80.04
2022-12-24T12:10:32.146Z,81.51
2022-12-24T12:13:50.267Z,82.44
2022-12-24T12:17:39.792Z,88.00
2022-12-24T12:20:52.749Z,92.76
2022-12-24T12:24:31.560Z,89.49
2022-12-24T12:27:41.857Z,94.30
2022-12-24T12:30:45.944Z,95.05
2022-12-24T12:34:07.107Z,94.43
2022-12-24T12:37:27.492Z,95.41
2022-12-24T12:40:38.865Z,70.33
2022-12-24T12:44:04.084Z,77.55
2022-12-24T12:47:32.637Z,69.00
2022-12-24T12:50:48.551Z,70.73
2022-12-24T12:54:28.200Z,57.85
2022-12-24T12:57:37.767Z,55.22
2022-12-24T13:00:44.725Z,54.24
2022-12-24T13:04:01.915Z,51.91
2022-12-24T13:07:12.828Z,50.45
2022-12-24T13:10:42.838Z,42.53
2022-12-24T13:14:09.534Z,44.09
2022-12-24T13:17:42.299Z,43.87
2022-12-24T13:20:49.582Z,46.68
2022-12-24T13:24:04.603Z,50.31
2022-12-24T13:27:26.233Z,54.42
2022-12-24T13:30:41.293Z,56.70
2022-12-24T13:33:59.758Z,63.73
2022-12-24T13:37:05.440Z,63.89
2022-12-24T13:40:21.133Z,51.00
2022-12-24T13:43:46.444Z,48.84
2022-12-24T13:47:01.324Z,47.35
2022-12-24T13:50:22.655Z,45.42
2022-12-24T13:54:02.901Z,46.25
2022-12-24T13:57:27.222Z,48.23
2022-12-24T14:00:33.553Z,55.46
2022-12-24T14:03:41.697Z,62.53
2022-12-24T14:06:52.981Z,69.25
2022-12-24T14:09:55.443Z,71.18
2022-12-24T14:12:57.719Z,72.54
2022-12-24T14:16:05.469Z,74.26
2022-12-24T14:19:15.441Z,76.47
2022-12-24T14:22:35.819Z,76.87
2022-12-24T14:25:37.891Z,68.28
2022-12-24T14:28:44.778Z,65.85
2022-12-24T14:31:54.986Z,65.01
2022-12-24T14:35:30.951Z,63.45
2022-12-24T14:38:34.262Z,66.19
2022-12-24T14:41:53.513Z,63.88
2022-12-24T14:45:32.785Z,62.91
2022-12-24T14:48:46.197Z,63.14
2022-12-24T14:52:30.707Z,61.95
2022-12-24T14:55:45.195Z,62.47
2022-12-24T14:58:47.804Z,62.27
2022-12-24T15:01:50.170Z,61.53
2022-12-24T15:05:07.561Z,61.38
2022-12-24T15:08:27.773Z,60.71
2022-12-24T15:11:30.430Z,61.33
2022-12-24T15:14:44.208Z,59.69
2022-12-24T15:17:46.721Z,59.15
2022-12-24T15:20:53.709Z,60.18
2022-12-24T15:23:59.805Z,59.34
2022-12-24T15:27:17.061Z,60.40
2022-12-24T15:30:23.598Z,58.67
2022-12-24T15:33:31.219Z,57.84
2022-12-24T15:36:37.532Z,58.82
2022-12-24T15:39:40.721Z,58.56
2022-12-24T15:42:44.166Z,58.73
2022-12-24T15:45:48.525Z,57.47
2022-12-24T15:48:54.361Z,57.21
2022-12-24T15:52:07.604Z,57.24
2022-12-24T15:55:46.821Z,56.61
2022-12-24T15:58:48.999Z,57.39
2022-12-24T16:01:51.433Z,57.53
2022-12-24T16:04:57.294Z,56.71
2022-12-24T16:08:19.319Z,57.64
2022-12-24T16:11:24.422Z,56.39
2022-12-24T16:14:28.994Z,56.67
2022-12-24T16:17:34.687Z,56.83
2022-12-24T16:20:36.665Z,56.72
2022-12-24T16:23:47.425Z,57.13
2022-12-24T16:26:49.670Z,56.48
2022-12-24T16:29:51.809Z,56.25
2022-12-24T16:32:54.488Z,57.04
2022-12-24T16:35:59.963Z,56.30
2022-12-24T16:39:20.885Z,59.35
2022-12-24T16:42:41.944Z,58.34
2022-12-24T16:45:46.676Z,58.00
2022-12-24T16:48:49.338Z,60.42
2022-12-24T16:51:51.302Z,60.42
2022-12-24T16:54:53.438Z,58.82
2022-12-24T16:57:56.671Z,56.92
2022-12-24T17:00:59.899Z,57.99
2022-12-24T17:04:05.949Z,57.10
2022-12-24T17:07:08.781Z,60.50
2022-12-24T17:10:14.475Z,62.45
2022-12-24T17:13:16.707Z,64.51
2022-12-24T17:16:18.959Z,67.17
2022-12-24T17:19:21.048Z,68.84
2022-12-24T17:22:24.110Z,68.24
2022-12-24T17:25:26.159Z,63.17
2022-12-24T17:28:28.347Z,63.82
2022-12-24T17:31:30.948Z,66.62
2022-12-24T17:34:33.246Z,68.29
2022-12-24T17:37:35.796Z,69.35
2022-12-24T17:40:37.884Z,70.01
2022-12-24T17:43:40.344Z,71.95
2022-12-24T17:46:47.090Z,71.86
2022-12-24T17:49:51.388Z,70.23
2022-12-24T17:52:53.440Z,70.01
2022-12-24T17:55:55.450Z,70.67
2022-12-24T17:59:05.582Z,70.35
2022-12-24T18:02:11.897Z,69.59
2022-12-24T18:05:14.024Z,67.26
2022-12-24T18:08:16.973Z,67.18
2022-12-24T18:11:25.094Z,66.20
2022-12-24T18:14:27.913Z,65.39
2022-12-24T18:17:34.218Z,65.57
2022-12-24T18:20:42.717Z,65.29
2022-12-24T18:23:50.892Z,64.78
2022-12-24T18:26:56.019Z,65.18
2022-12-24T18:29:58.119Z,64.89
2022-12-24T18:33:01.261Z,64.28
2022-12-24T18:36:09.322Z,65.39
2022-12-24T18:39:11.345Z,65.14
2022-12-24T18:42:14.852Z,64.36
2022-12-24T18:45:17.079Z,65.77
2022-12-24T18:48:19.158Z,65.00
2022-12-24T18:51:23.013Z,65.28
2022-12-24T18:54:25.352Z,64.35
2022-12-24T18:57:28.075Z,64.65
2022-12-24T19:00:30.219Z,65.04
2022-12-24T19:03:32.309Z,65.46
2022-12-24T19:06:52.995Z,65.79
2022-12-24T19:09:55.761Z,63.26
2022-12-24T19:12:57.776Z,63.40
2022-12-24T19:16:00.432Z,64.60
2022-12-24T19:19:04.963Z,61.63
2022-12-24T19:22:07.012Z,62.10
2022-12-24T19:25:15.566Z,61.79
2022-12-24T19:28:24.118Z,62.20
2022-12-24T19:31:27.972Z,59.56
2022-12-24T19:34:30.378Z,60.50
2022-12-24T19:37:32.493Z,61.69
2022-12-24T19:40:38.260Z,63.68
2022-12-24T19:43:43.072Z,62.11
2022-12-24T19:46:45.235Z,63.87
2022-12-24T19:49:50.352Z,64.71
2022-12-24T19:52:52.421Z,63.92
2022-12-24T19:55:54.428Z,63.01
2022-12-24T19:58:57.574Z,64.22
2022-12-24T20:02:02.753Z,66.11
2022-12-24T20:05:06.206Z,65.90
2022-12-24T20:08:08.240Z,64.34
2022-12-24T20:11:16.787Z,65.75
2022-12-24T20:14:18.573Z,67.32
2022-12-24T20:17:20.502Z,68.21
2022-12-24T20:20:22.542Z,68.86
2022-12-24T20:23:26.968Z,68.35
2022-12-24T20:26:29.389Z,66.52
2022-12-24T20:29:31.525Z,64.78
2022-12-24T20:32:33.875Z,67.35
2022-12-24T20:35:36.091Z,65.76
2022-12-24T20:38:39.053Z,64.95
2022-12-24T20:41:41.088Z,66.15
2022-12-24T20:44:43.136Z,67.50
2022-12-24T20:47:45.205Z,66.07
2022-12-24T20:50:47.369Z,67.47
2022-12-24T20:53:49.830Z,67.14
2022-12-24T20:56:57.787Z,66.29
2022-12-24T21:00:01.442Z,65.21
2022-12-24T21:03:04.033Z,66.76
2022-12-24T21:06:06.547Z,64.49
2022-12-24T21:09:08.800Z,65.84
2022-12-24T21:12:36.049Z,65.14
2022-12-24T21:15:40.999Z,64.89
2022-12-24T21:18:43.089Z,64.33
2022-12-24T21:25:05.949Z,64.75
2022-12-24T21:28:08.167Z,63.81
2022-12-24T21:31:14.704Z,64.25
2022-12-24T21:34:16.793Z,63.61
2022-12-24T21:37:21.039Z,64.85
2022-12-24T21:40:23.194Z,64.79
2022-12-24T21:43:25.195Z,65.75
2022-12-24T21:46:27.389Z,65.25
2022-12-24T21:49:48.768Z,65.35
2022-12-24T21:53:10.929Z,68.38
2022-12-24T21:56:13.016Z,69.77
2022-12-24T21:59:14.953Z,69.64
2022-12-24T22:02:17.620Z,69.35
2022-12-24T22:05:20.927Z,68.61
2022-12-24T22:08:41.462Z,70.33
2022-12-24T22:11:54.335Z,72.67
2022-12-24T22:14:57.156Z,83.96
2022-12-24T22:17:59.198Z,79.70
2022-12-24T22:21:02.814Z,79.02
2022-12-24T22:24:05.224Z,78.28
2022-12-24T22:27:07.190Z,78.00
2022-12-24T22:30:10.087Z,76.88
2022-12-24T22:33:12.192Z,77.15
2022-12-24T22:36:14.217Z,76.67
2022-12-24T22:39:16.223Z,76.11
2022-12-24T22:42:18.263Z,76.41
2022-12-24T22:45:22.690Z,75.61
2022-12-24T22:48:24.956Z,72.90
2022-12-24T22:51:27.282Z,73.38
2022-12-24T22:54:29.338Z,69.87
2022-12-24T22:57:31.701Z,70.36
2022-12-24T23:00:43.642Z,70.50
2022-12-24T23:03:45.803Z,74.86
2022-12-24T23:06:48.025Z,77.34
2022-12-24T23:09:50.189Z,79.39
2022-12-24T23:13:14.803Z,78.88
2022-12-24T23:16:17.506Z,79.34
2022-12-24T23:19:19.791Z,78.61
2022-12-24T23:22:22.091Z,79.54
2022-12-24T23:25:25.734Z,81.10
2022-12-24T23:28:27.751Z,80.16
2022-12-24T23:31:30.985Z,81.02
2022-12-24T23:34:33.193Z,80.87
2022-12-24T23:37:35.662Z,80.76
2022-12-24T23:40:37.794Z,79.97
2022-12-24T23:43:39.953Z,80.34
2022-12-24T23:46:42.093Z,80.82
2022-12-24T23:49:44.403Z,80.86
2022-12-24T23:52:46.410Z,80.94
2022-12-24T23:55:48.440Z,80.41
2022-12-24T23:58:50.605Z,79.09
